Time;durP1;ratioP1;P1;durP2;ratioP2;P2;SDS_P1;SDS_P2;PMS_P1;PMS_P2;Temp;Humidity;BMP_temperature;BMP_pressure;BME280_temperature;BME280_humidity;BME280_pressure;Samples;Min_cycle;Max_cycle;Signal;HPM_P1;HPM_P2
2023/09/18 00:00:26;;;;;;;0.38;0.30;;;;;;;;;;1010940;29;20040;-24
2023/09/18 00:00:57;;;;;;;0.22;0.22;;;;;;;;;;1011184;29;20028;-24
2023/09/18 00:01:28;;;;;;;0.63;0.63;;;;;;;;;;1011270;29;20507;-25
2023/09/18 00:01:58;;;;;;;0.10;0.10;;;;;;;;;;1013240;29;21211;-24
2023/09/18 00:02:31;;;;;;;0.65;0.60;;;;;;;;;;1012950;29;20483;-25
2023/09/18 00:03:02;;;;;;;13.00;1.40;;;;;;;;;;1013345;29;20028;-23
2023/09/18 00:03:33;;;;;;;0.35;0.35;;;;;;;;;;1013437;29;20028;-25
2023/09/18 00:04:04;;;;;;;0.35;0.35;;;;;;;;;;1013643;29;20032;-25
2023/09/18 00:04:34;;;;;;;1.08;1.00;;;;;;;;;;1013603;29;20566;-25
2023/09/18 00:05:05;;;;;;;1.58;1.48;;;;;;;;;;1013481;29;20020;-25
2023/09/18 00:05:35;;;;;;;0.85;0.82;;;;;;;;;;1013221;29;20403;-25
2023/09/18 00:06:06;;;;;;;0.93;0.93;;;;;;;;;;1013202;29;20111;-25
2023/09/18 00:06:37;;;;;;;0.20;0.20;;;;;;;;;;1013475;29;20420;-25
2023/09/18 00:07:07;;;;;;;2.55;0.85;;;;;;;;;;1013721;29;20029;-25
2023/09/18 00:07:38;;;;;;;2.45;2.17;;;;;;;;;;1013874;29;20111;-24
2023/09/18 00:08:08;;;;;;;1.15;0.82;;;;;;;;;;1013378;29;20025;-26
2023/09/18 00:08:39;;;;;;;1.10;0.55;;;;;;;;;;1013742;28;20028;-25
2023/09/18 00:09:13;;;;;;;1.20;1.13;;;;;;;;;;1013634;29;20119;-25
2023/09/18 00:09:43;;;;;;;1.27;0.77;;;;;;;;;;1013630;29;20032;-25
2023/09/18 00:10:14;;;;;;;0.57;0.57;;;;;;;;;;1013500;29;20020;-25
2023/09/18 00:10:49;;;;;;;0.40;0.35;;;;;;;;;;1013209;29;20131;-24
2023/09/18 00:11:19;;;;;;;0.75;0.75;;;;;;;;;;1013446;29;20059;-25
2023/09/18 00:11:50;;;;;;;1.08;0.73;;;;;;;;;;1012750;29;20050;-25
2023/09/18 00:12:20;;;;;;;2.45;2.25;;;;;;;;;;1013518;29;20032;-24
2023/09/18 00:12:51;;;;;;;0.38;0.38;;;;;;;;;;1013355;29;20110;-25
2023/09/18 00:13:22;;;;;;;0.90;0.90;;;;;;;;;;1013218;28;20122;-25
2023/09/18 00:13:52;;;;;;;1.25;1.15;;;;;;;;;;1013225;29;20111;-25
2023/09/18 00:14:23;;;;;;;22.63;1.33;;;;;;;;;;1013624;29;20035;-25
2023/09/18 00:14:53;;;;;;;0.50;0.50;;;;;;;;;;1013528;29;20071;-25
2023/09/18 00:15:25;;;;;;;0.47;0.40;;;;;;;;;;1013727;29;20028;-25
2023/09/18 00:15:55;;;;;;;2.25;1.33;;;;;;;;;;1013404;29;20024;-25
2023/09/18 00:16:27;;;;;;;1.35;1.00;;;;;;;;;;1013122;29;20390;-24
2023/09/18 00:16:57;;;;;;;11.02;2.40;;;;;;;;;;1013121;29;20024;-25
2023/09/18 00:17:28;;;;;;;3.20;1.95;;;;;;;;;;1013364;29;20024;-26
2023/09/18 00:17:58;;;;;;;0.10;0.10;;;;;;;;;;1013579;29;20559;-25
2023/09/18 00:18:29;;;;;;;3.25;1.73;;;;;;;;;;1013455;29;20031;-25
2023/09/18 00:18:59;;;;;;;10.43;1.17;;;;;;;;;;1013529;29;20031;-25
2023/09/18 00:19:31;;;;;;;8.68;2.72;;;;;;;;;;1012998;29;20032;-25
2023/09/18 00:20:06;;;;;;;1.60;1.50;;;;;;;;;;1013075;29;20062;-25
2023/09/18 00:20:36;;;;;;;0.20;0.20;;;;;;;;;;1013121;29;20038;-25
2023/09/18 00:21:07;;;;;;;1.65;1.55;;;;;;;;;;1013247;29;20025;-25
2023/09/18 00:21:37;;;;;;;3.08;1.60;;;;;;;;;;1013485;29;20049;-25
2023/09/18 00:22:08;;;;;;;1.33;1.23;;;;;;;;;;1013617;29;20028;-25
2023/09/18 00:22:39;;;;;;;1.60;1.35;;;;;;;;;;1013729;29;20476;-25
2023/09/18 00:23:09;;;;;;;1.80;1.70;;;;;;;;;;1013251;29;20024;-25
2023/09/18 00:23:40;;;;;;;2.50;1.65;;;;;;;;;;1013462;28;20028;-25
2023/09/18 00:24:11;;;;;;;0.22;0.22;;;;;;;;;;1013020;29;20029;-23
2023/09/18 00:24:42;;;;;;;0.20;0.20;;;;;;;;;;1013145;29;20036;-25
2023/09/18 00:25:14;;;;;;;0.40;0.40;;;;;;;;;;1013702;29;20021;-25
2023/09/18 00:25:45;;;;;;;0.80;0.80;;;;;;;;;;1013612;29;20061;-25
2023/09/18 00:26:15;;;;;;;0.75;0.75;;;;;;;;;;1010854;29;20020;-25
2023/09/18 00:26:47;;;;;;;1.45;0.65;;;;;;;;;;1011302;29;20031;-25
2023/09/18 00:27:18;;;;;;;2.22;0.93;;;;;;;;;;1009222;29;20063;-25
2023/09/18 00:27:49;;;;;;;0.38;0.38;;;;;;;;;;1009708;29;20160;-25
2023/09/18 00:28:19;;;;;;;0.50;0.50;;;;;;;;;;1013477;29;20479;-25
2023/09/18 00:28:50;;;;;;;4.50;2.05;;;;;;;;;;1013379;28;20106;-23
2023/09/18 00:29:20;;;;;;;2.50;0.95;;;;;;;;;;1012581;29;20040;-23
2023/09/18 00:29:51;;;;;;;0.10;0.10;;;;;;;;;;1013544;29;20028;-25
2023/09/18 00:30:21;;;;;;;1.30;0.88;;;;;;;;;;1013512;29;20028;-25
2023/09/18 00:30:52;;;;;;;0.20;0.20;;;;;;;;;;1013409;29;20450;-26
2023/09/18 00:31:22;;;;;;;0.30;0.30;;;;;;;;;;1013342;29;20078;-23
2023/09/18 00:31:53;;;;;;;1.17;0.95;;;;;;;;;;1013122;29;20020;-25
2023/09/18 00:32:23;;;;;;;0.22;0.22;;;;;;;;;;1013585;29;20044;-23
2023/09/18 00:32:54;;;;;;;0.80;0.80;;;;;;;;;;1013673;29;20059;-25
2023/09/18 00:33:24;;;;;;;1.23;1.15;;;;;;;;;;1013762;29;20060;-24
2023/09/18 00:33:54;;;;;;;1.30;1.08;;;;;;;;;;1013675;29;20024;-25
2023/09/18 00:34:25;;;;;;;0.70;0.68;;;;;;;;;;1013615;29;20028;-25
2023/09/18 00:34:55;;;;;;;0.55;0.55;;;;;;;;;;1013873;29;20037;-25
2023/09/18 00:35:26;;;;;;;0.98;0.85;;;;;;;;;;1013675;29;20475;-25
2023/09/18 00:35:56;;;;;;;1.10;0.47;;;;;;;;;;1013055;29;20631;-25
2023/09/18 00:36:27;;;;;;;0.20;0.20;;;;;;;;;;1013335;29;20175;-25
2023/09/18 00:36:59;;;;;;;0.28;0.28;;;;;;;;;;1013980;29;20033;-25
2023/09/18 00:37:29;;;;;;;0.43;0.43;;;;;;;;;;1013458;29;20094;-25
2023/09/18 00:38:03;;;;;;;0.63;0.40;;;;;;;;;;1014354;29;20480;-24
2023/09/18 00:40:49;;;;;;;4.55;0.57;;;;;;;;;;1013546;29;20024;-25
2023/09/18 00:41:20;;;;;;;2.70;2.50;;;;;;;;;;1013491;29;20456;-25
2023/09/18 00:42:03;;;;;;;;;;;;;;;;;;;;;
2023/09/18 00:44:06;;;;;;;2.20;2.05;;;;;;;;;;1013618;29;20024;-25
2023/09/18 00:44:37;;;;;;;3.53;1.80;;;;;;;;;;1013790;28;20032;-25
2023/09/18 00:45:09;;;;;;;3.75;2.33;;;;;;;;;;1013578;29;20016;-25
2023/09/18 00:45:44;;;;;;;1.75;0.90;;;;;;;;;;1013672;29;20392;-24
2023/09/18 00:46:14;;;;;;;11.75;1.42;;;;;;;;;;1013086;29;20028;-25
2023/09/18 00:46:49;;;;;;;0.77;0.77;;;;;;;;;;1013508;29;20028;-24
2023/09/18 00:47:20;;;;;;;0.90;0.63;;;;;;;;;;1013280;29;20028;-25
2023/09/18 00:47:50;;;;;;;0.75;0.60;;;;;;;;;;1013578;29;20440;-25
2023/09/18 00:48:21;;;;;;;4.78;0.57;;;;;;;;;;1010882;29;20056;-25
2023/09/18 00:48:53;;;;;;;0.30;0.30;;;;;;;;;;1011197;29;20040;-25
2023/09/18 00:49:23;;;;;;;1.17;0.98;;;;;;;;;;1009422;29;20017;-24
2023/09/18 00:49:54;;;;;;;2.05;0.52;;;;;;;;;;1009731;29;20025;-24
2023/09/18 00:50:26;;;;;;;5.10;1.17;;;;;;;;;;1012077;29;20934;-25
2023/09/18 00:50:56;;;;;;;0.55;0.55;;;;;;;;;;1013315;29;20432;-24
2023/09/18 00:51:27;;;;;;;1.48;1.38;;;;;;;;;;1013716;29;20024;-24
2023/09/18 00:51:57;;;;;;;11.27;1.42;;;;;;;;;;1013625;28;20506;-25
2023/09/18 00:56:22;;;;;;;1.55;1.45;;;;;;;;;;1013054;29;20056;-25
2023/09/18 00:56:54;;;;;;;1.23;1.15;;;;;;;;;;1013448;29;20167;-23
2023/09/18 00:57:25;;;;;;;1.52;1.10;;;;;;;;;;1013533;29;20434;-25
2023/09/18 00:57:56;;;;;;;0.60;0.60;;;;;;;;;;1013477;29;20039;-25
2023/09/18 00:58:26;;;;;;;1.00;0.65;;;;;;;;;;1013345;29;20491;-25
2023/09/18 00:58:57;;;;;;;1.25;1.05;;;;;;;;;;1013171;29;20024;-23
2023/09/18 00:59:27;;;;;;;4.28;1.08;;;;;;;;;;1013172;29;20024;-26
2023/09/18 00:59:58;;;;;;;1.10;0.88;;;;;;;;;;1013526;28;20032;-25
2023/09/18 01:00:29;;;;;;;0.17;0.17;;;;;;;;;;1012427;28;20024;-25
2023/09/18 01:01:00;;;;;;;1.00;0.98;;;;;;;;;;1014054;29;20125;-25
2023/09/18 01:01:31;;;;;;;0.30;0.30;;;;;;;;;;1013529;29;20067;-25
2023/09/18 01:02:03;;;;;;;1.45;1.38;;;;;;;;;;1012610;29;20024;-23
2023/09/18 01:02:33;;;;;;;0.22;0.22;;;;;;;;;;1013414;29;20397;-25
2023/09/18 01:03:04;;;;;;;0.10;0.10;;;;;;;;;;1013131;29;20474;-23
2023/09/18 01:03:35;;;;;;;4.75;0.82;;;;;;;;;;1012812;29;20472;-23
2023/09/18 01:04:07;;;;;;;3.35;1.50;;;;;;;;;;1015347;28;20091;-25
2023/09/18 01:04:37;;;;;;;0.38;0.28;;;;;;;;;;1016166;28;20436;-25
2023/09/18 01:05:08;;;;;;;2.83;1.55;;;;;;;;;;1013197;29;20111;-24
2023/09/18 01:05:38;;;;;;;1.17;1.08;;;;;;;;;;1014757;29;20039;-25
2023/09/18 01:06:09;;;;;;;0.30;0.30;;;;;;;;;;1012955;28;20067;-24
2023/09/18 01:06:40;;;;;;;1.10;0.55;;;;;;;;;;1012698;29;20035;-26
2023/09/18 01:07:10;;;;;;;1.45;0.43;;;;;;;;;;1013342;29;20505;-24
2023/09/18 01:07:41;;;;;;;1.83;1.70;;;;;;;;;;1015095;28;20052;-25
2023/09/18 01:08:11;;;;;;;2.00;1.80;;;;;;;;;;1013809;28;20081;-25
2023/09/18 01:08:42;;;;;;;1.20;0.55;;;;;;;;;;1012905;29;20473;-25
2023/09/18 01:09:14;;;;;;;0.10;0.10;;;;;;;;;;1013855;29;20062;-25
2023/09/18 01:09:45;;;;;;;1.00;0.95;;;;;;;;;;1012362;29;20032;-25
2023/09/18 01:10:16;;;;;;;0.60;0.60;;;;;;;;;;1012396;29;20125;-24
2023/09/18 01:10:59;;;;;;;1.35;1.13;;;;;;;;;;1013024;29;20074;-25
2023/09/18 01:11:34;;;;;;;1.38;1.30;;;;;;;;;;1012661;29;20025;-24
2023/09/18 01:12:23;;;;;;;0.32;0.32;;;;;;;;;;1012231;29;20028;-25
2023/09/18 01:13:02;;;;;;;0.35;0.35;;;;;;;;;;1014638;28;20362;-26
2023/09/18 01:13:45;;;;;;;0.73;0.73;;;;;;;;;;1011377;29;20067;-25
2023/09/18 01:14:28;;;;;;;1.52;1.42;;;;;;;;;;1012417;28;20033;-25
2023/09/18 01:15:03;;;;;;;0.45;0.30;;;;;;;;;;1011820;29;20028;-25
2023/09/18 01:15:36;;;;;;;1.13;1.05;;;;;;;;;;1012936;29;20039;-24
2023/09/18 01:16:12;;;;;;;0.75;0.75;;;;;;;;;;1014477;29;20020;-25
2023/09/18 01:17:01;;;;;;;1.33;0.93;;;;;;;;;;1012618;29;20024;-24
2023/09/18 01:17:34;;;;;;;0.73;0.73;;;;;;;;;;1014498;28;20020;-24
2023/09/18 01:18:05;;;;;;;2.22;0.55;;;;;;;;;;1013069;29;20024;-25
2023/09/18 01:18:35;;;;;;;0.47;0.47;;;;;;;;;;1013070;29;20136;-25
2023/09/18 01:19:06;;;;;;;0.25;0.25;;;;;;;;;;1016269;28;20086;-25
2023/09/18 01:19:40;;;;;;;1.38;1.27;;;;;;;;;;1013976;29;20391;-25
2023/09/18 01:21:20;;;;;;;0.22;0.22;;;;;;;;;;1013675;29;20016;-24
2023/09/18 01:21:51;;;;;;;3.58;1.50;;;;;;;;;;1013832;29;20024;-25
2023/09/18 01:22:22;;;;;;;0.70;0.70;;;;;;;;;;1013169;29;20554;-25
2023/09/18 01:22:52;;;;;;;0.88;0.70;;;;;;;;;;1011467;29;20036;-25
2023/09/18 01:23:23;;;;;;;0.70;0.70;;;;;;;;;;1014009;29;20119;-25
2023/09/18 01:23:53;;;;;;;0.80;0.80;;;;;;;;;;1012349;29;20077;-25
2023/09/18 01:24:24;;;;;;;1.48;0.82;;;;;;;;;;1014220;29;20115;-25
2023/09/18 01:24:54;;;;;;;0.50;0.50;;;;;;;;;;1013094;29;20031;-25
2023/09/18 01:25:25;;;;;;;8.48;1.55;;;;;;;;;;1013305;29;20468;-25
2023/09/18 01:25:55;;;;;;;2.38;2.08;;;;;;;;;;1012790;29;20589;-26
2023/09/18 01:26:27;;;;;;;0.50;0.43;;;;;;;;;;1013360;29;20460;-26
2023/09/18 01:26:58;;;;;;;0.40;0.40;;;;;;;;;;1009171;28;20025;-25
2023/09/18 01:27:28;;;;;;;0.40;0.30;;;;;;;;;;1010213;29;20032;-26
2023/09/18 01:27:59;;;;;;;4.03;0.82;;;;;;;;;;1008379;29;20498;-25
2023/09/18 01:28:30;;;;;;;1.08;0.95;;;;;;;;;;1009950;29;20028;-25
2023/09/18 01:29:00;;;;;;;1.00;0.95;;;;;;;;;;1013973;29;20055;-25
2023/09/18 01:29:31;;;;;;;1.45;1.33;;;;;;;;;;1011692;29;20514;-25
2023/09/18 01:30:02;;;;;;;1.48;0.95;;;;;;;;;;1011393;29;20345;-25
2023/09/18 01:30:34;;;;;;;0.98;0.98;;;;;;;;;;1011098;28;20452;-25
2023/09/18 01:31:05;;;;;;;1.02;1.02;;;;;;;;;;1012654;29;20459;-26
2023/09/18 01:31:36;;;;;;;2.50;1.58;;;;;;;;;;1013284;28;20031;-24
2023/09/18 01:32:06;;;;;;;1.35;1.13;;;;;;;;;;1014312;29;20040;-25
2023/09/18 01:32:38;;;;;;;0.40;0.40;;;;;;;;;;1013022;29;20467;-24
2023/09/18 01:33:10;;;;;;;0.50;0.50;;;;;;;;;;1008301;28;20501;-25
2023/09/18 01:33:40;;;;;;;2.15;1.95;;;;;;;;;;1011831;28;20032;-25
2023/09/18 01:34:11;;;;;;;1.33;0.90;;;;;;;;;;1010362;29;20028;-25
2023/09/18 01:34:46;;;;;;;6.35;1.75;;;;;;;;;;1009255;29;20025;-25
2023/09/18 01:35:17;;;;;;;0.93;0.93;;;;;;;;;;1013727;29;20682;-24
2023/09/18 01:35:48;;;;;;;3.33;1.20;;;;;;;;;;1013444;29;20040;-24
2023/09/18 01:36:19;;;;;;;1.75;0.98;;;;;;;;;;1013421;28;20028;-25
2023/09/18 01:36:51;;;;;;;0.22;0.22;;;;;;;;;;1010301;28;20036;-25
2023/09/18 01:37:26;;;;;;;1.75;1.27;;;;;;;;;;1009842;28;20094;-24
2023/09/18 01:37:58;;;;;;;4.68;2.00;;;;;;;;;;1009866;29;20033;-25
2023/09/18 01:38:29;;;;;;;0.45;0.40;;;;;;;;;;1010148;29;20377;-25
2023/09/18 01:39:00;;;;;;;1.30;1.20;;;;;;;;;;1013311;28;20032;-23
2023/09/18 01:39:32;;;;;;;0.15;0.10;;;;;;;;;;1013103;29;20025;-25
2023/09/18 01:40:06;;;;;;;1.27;1.17;;;;;;;;;;1014014;29;20452;-26
2023/09/18 01:40:38;;;;;;;0.55;0.55;;;;;;;;;;1008720;29;20060;-25
2023/09/18 01:41:09;;;;;;;4.35;0.68;;;;;;;;;;1009418;29;20028;-24
2023/09/18 01:41:41;;;;;;;22.38;1.80;;;;;;;;;;1007447;29;20037;-25
2023/09/18 01:42:11;;;;;;;10.75;1.20;;;;;;;;;;1007996;29;20035;-25
2023/09/18 01:42:43;;;;;;;7.32;0.55;;;;;;;;;;1010319;29;20036;-26
2023/09/18 01:43:13;;;;;;;0.60;0.60;;;;;;;;;;1008504;29;20024;-24
2023/09/18 01:43:44;;;;;;;1.13;1.08;;;;;;;;;;1014166;29;20020;-23
2023/09/18 01:44:14;;;;;;;0.40;0.30;;;;;;;;;;1012869;29;20130;-25
2023/09/18 01:44:45;;;;;;;0.30;0.30;;;;;;;;;;1013330;29;20075;-25
2023/09/18 01:45:16;;;;;;;0.40;0.30;;;;;;;;;;1013353;29;20483;-25
2023/09/18 01:45:47;;;;;;;0.35;0.35;;;;;;;;;;1013066;29;20033;-25
2023/09/18 01:46:18;;;;;;;0.68;0.68;;;;;;;;;;1011595;29;20028;-25
2023/09/18 01:46:51;;;;;;;1.23;1.13;;;;;;;;;;1011764;28;20040;-25
2023/09/18 01:47:23;;;;;;;3.90;1.70;;;;;;;;;;1013528;28;20108;-25
2023/09/18 01:47:53;;;;;;;2.08;1.45;;;;;;;;;;1013204;29;20445;-25
2023/09/18 01:48:24;;;;;;;5.35;1.48;;;;;;;;;;1012890;29;20036;-24
2023/09/18 01:48:54;;;;;;;2.38;2.03;;;;;;;;;;1012105;29;20024;-25
2023/09/18 01:49:29;;;;;;;0.25;0.25;;;;;;;;;;1014468;28;20028;-25
2023/09/18 01:50:04;;;;;;;0.10;0.10;;;;;;;;;;1012573;29;20396;-24
2023/09/18 01:50:37;;;;;;;1.80;0.45;;;;;;;;;;1009149;28;20395;-26
2023/09/18 01:51:07;;;;;;;1.27;1.00;;;;;;;;;;1008500;29;20388;-26
2023/09/18 01:51:38;;;;;;;1.02;0.93;;;;;;;;;;1009892;29;20037;-25
2023/09/18 01:52:11;;;;;;;2.03;1.20;;;;;;;;;;1008718;29;20032;-25
2023/09/18 01:55:10;;;;;;;0.98;0.85;;;;;;;;;;1013046;29;20055;-26
2023/09/18 01:55:41;;;;;;;0.55;0.52;;;;;;;;;;1013202;29;20359;-26
2023/09/18 01:56:12;;;;;;;0.55;0.55;;;;;;;;;;1007664;29;20072;-25
2023/09/18 01:56:43;;;;;;;0.20;0.20;;;;;;;;;;1009062;28;20029;-24
2023/09/18 01:57:13;;;;;;;13.25;2.25;;;;;;;;;;1007254;29;20772;-25
2023/09/18 01:57:45;;;;;;;0.20;0.20;;;;;;;;;;1009272;28;20035;-26
2023/09/18 01:58:15;;;;;;;0.28;0.28;;;;;;;;;;1013509;29;20841;-25
2023/09/18 01:58:46;;;;;;;2.78;1.92;;;;;;;;;;1012261;29;20026;-25
2023/09/18 01:59:17;;;;;;;0.25;0.25;;;;;;;;;;1013545;29;20829;-25
2023/09/18 01:59:48;;;;;;;0.10;0.10;;;;;;;;;;1011016;29;20541;-24
2023/09/18 02:00:19;;;;;;;0.40;0.40;;;;;;;;;;1007843;29;20043;-25
2023/09/18 02:00:49;;;;;;;0.57;0.57;;;;;;;;;;1008196;29;20028;-26
2023/09/18 02:01:21;;;;;;;2.75;1.73;;;;;;;;;;1008905;29;20028;-26
2023/09/18 02:01:53;;;;;;;1.38;1.13;;;;;;;;;;1012337;29;20047;-26
2023/09/18 02:02:24;;;;;;;1.38;1.27;;;;;;;;;;1012939;29;20063;-26
2023/09/18 02:02:54;;;;;;;23.02;2.35;;;;;;;;;;1012846;29;20031;-26
2023/09/18 02:03:28;;;;;;;2.30;1.48;;;;;;;;;;1012923;29;20055;-25
2023/09/18 02:03:58;;;;;;;1.95;1.58;;;;;;;;;;1014549;29;20032;-25
2023/09/18 02:04:29;;;;;;;0.43;0.40;;;;;;;;;;1012302;29;20035;-25
2023/09/18 02:05:00;;;;;;;1.08;0.98;;;;;;;;;;1009051;29;20398;-26
2023/09/18 02:05:32;;;;;;;1.38;0.73;;;;;;;;;;1009411;29;20033;-25
2023/09/18 02:06:03;;;;;;;0.73;0.65;;;;;;;;;;1009690;29;20067;-25
2023/09/18 02:06:33;;;;;;;0.32;0.32;;;;;;;;;;1009014;29;20083;-25
2023/09/18 02:07:05;;;;;;;0.93;0.93;;;;;;;;;;1013266;29;20391;-26
2023/09/18 02:07:36;;;;;;;2.17;1.48;;;;;;;;;;1014003;29;20035;-26
2023/09/18 02:08:08;;;;;;;0.10;0.10;;;;;;;;;;1007432;29;20044;-25
2023/09/18 02:08:39;;;;;;;1.35;1.25;;;;;;;;;;1008364;29;20037;-26
2023/09/18 02:09:10;;;;;;;1.23;1.13;;;;;;;;;;1008231;28;20043;-24
2023/09/18 02:09:40;;;;;;;1.55;1.35;;;;;;;;;;1010072;29;20044;-25
2023/09/18 02:10:12;;;;;;;2.60;1.75;;;;;;;;;;1013173;29;20468;-25
2023/09/18 02:10:43;;;;;;;0.75;0.75;;;;;;;;;;1013413;28;20032;-26
2023/09/18 02:11:13;;;;;;;1.85;1.05;;;;;;;;;;1015657;28;20498;-26
2023/09/18 02:11:45;;;;;;;2.70;2.15;;;;;;;;;;1017988;28;20028;-26
2023/09/18 02:12:17;;;;;;;7.18;2.22;;;;;;;;;;1013205;29;20491;-25
2023/09/18 02:12:48;;;;;;;3.97;0.50;;;;;;;;;;1012696;29;20131;-25
2023/09/18 02:13:19;;;;;;;21.48;0.90;;;;;;;;;;1013459;28;20048;-25
2023/09/18 02:13:49;;;;;;;2.88;2.17;;;;;;;;;;1013111;29;20028;-26
2023/09/18 02:14:20;;;;;;;0.57;0.57;;;;;;;;;;1013545;29;20586;-26
2023/09/18 02:14:50;;;;;;;1.60;1.08;;;;;;;;;;1012646;29;20034;-26
2023/09/18 02:15:21;;;;;;;0.38;0.30;;;;;;;;;;1012892;29;20024;-25
2023/09/18 02:15:52;;;;;;;3.15;1.05;;;;;;;;;;1013429;29;20067;-24
2023/09/18 02:16:24;;;;;;;1.13;1.02;;;;;;;;;;1012304;29;20471;-25
2023/09/18 02:16:54;;;;;;;0.38;0.38;;;;;;;;;;1014035;29;20031;-25
2023/09/18 02:17:25;;;;;;;0.13;0.13;;;;;;;;;;1012951;29;20039;-25
2023/09/18 02:17:56;;;;;;;1.80;1.65;;;;;;;;;;1009040;29;20028;-24
2023/09/18 02:18:27;;;;;;;1.35;1.05;;;;;;;;;;1008272;29;20052;-25
2023/09/18 02:18:58;;;;;;;1.23;1.13;;;;;;;;;;1009332;29;20028;-25
2023/09/18 02:19:29;;;;;;;0.08;0.08;;;;;;;;;;1008175;29;20033;-25
2023/09/18 02:20:04;;;;;;;1.10;0.98;;;;;;;;;;1015109;28;20587;-26
2023/09/18 02:20:40;;;;;;;1.45;1.35;;;;;;;;;;1015420;28;20134;-25
2023/09/18 02:21:11;;;;;;;0.82;0.77;;;;;;;;;;1012492;28;20036;-25
2023/09/18 02:21:42;;;;;;;1.00;0.70;;;;;;;;;;1015546;28;20033;-25
2023/09/18 02:22:13;;;;;;;1.65;1.55;;;;;;;;;;1013161;28;20448;-25
2023/09/18 02:22:46;;;;;;;0.30;0.30;;;;;;;;;;1011514;28;20480;-25
2023/09/18 02:23:18;;;;;;;0.30;0.30;;;;;;;;;;1018090;28;20480;-26
2023/09/18 02:23:50;;;;;;;5.05;1.08;;;;;;;;;;1016186;28;20167;-26
2023/09/18 02:24:21;;;;;;;0.93;0.93;;;;;;;;;;1015276;28;20084;-25
2023/09/18 02:24:52;;;;;;;1.30;0.55;;;;;;;;;;1014702;28;20028;-25
2023/09/18 02:25:22;;;;;;;3.15;2.00;;;;;;;;;;1013727;28;20028;-25
2023/09/18 02:25:57;;;;;;;0.40;0.40;;;;;;;;;;1009283;29;20075;-25
2023/09/18 02:26:28;;;;;;;1.85;0.77;;;;;;;;;;1007712;29;20243;-24
2023/09/18 02:26:59;;;;;;;0.68;0.68;;;;;;;;;;1011499;28;20040;-26
2023/09/18 02:27:30;;;;;;;4.97;2.25;;;;;;;;;;1015577;28;20207;-24
2023/09/18 02:28:00;;;;;;;1.10;0.70;;;;;;;;;;1013446;29;20031;-26
2023/09/18 02:28:31;;;;;;;1.38;0.80;;;;;;;;;;1009117;29;20449;-25
2023/09/18 02:29:06;;;;;;;1.02;0.93;;;;;;;;;;1008219;28;20091;-25
2023/09/18 02:29:37;;;;;;;2.88;2.67;;;;;;;;;;1008888;28;20119;-26
2023/09/18 02:30:09;;;;;;;0.20;0.20;;;;;;;;;;1009925;28;20028;-25
2023/09/18 02:30:40;;;;;;;1.27;1.17;;;;;;;;;;1013889;29;20032;-26
2023/09/18 02:31:11;;;;;;;0.08;0.08;;;;;;;;;;1012075;29;20070;-26
2023/09/18 02:31:42;;;;;;;2.10;1.98;;;;;;;;;;1014206;29;20039;-25
2023/09/18 02:32:12;;;;;;;0.47;0.47;;;;;;;;;;1015933;28;20345;-25
2023/09/18 02:32:43;;;;;;;1.83;1.33;;;;;;;;;;1013995;29;20028;-25
2023/09/18 02:33:14;;;;;;;0.90;0.90;;;;;;;;;;1013265;28;20024;-26
2023/09/18 02:33:46;;;;;;;0.60;0.57;;;;;;;;;;1015244;28;20435;-25
2023/09/18 02:34:19;;;;;;;0.63;0.52;;;;;;;;;;1013384;28;20032;-26
2023/09/18 02:34:49;;;;;;;2.08;1.88;;;;;;;;;;1013385;29;20025;-26
2023/09/18 02:35:23;;;;;;;1.48;0.73;;;;;;;;;;1011560;28;20029;-26
2023/09/18 02:35:53;;;;;;;2.05;1.95;;;;;;;;;;1011115;28;20038;-25
2023/09/18 02:36:24;;;;;;;0.52;0.47;;;;;;;;;;1010028;28;20040;-25
2023/09/18 02:36:54;;;;;;;4.25;2.83;;;;;;;;;;1004594;29;20024;-26
2023/09/18 02:37:25;;;;;;;0.82;0.77;;;;;;;;;;1013294;28;20023;-25
2023/09/18 02:37:55;;;;;;;0.73;0.50;;;;;;;;;;1011850;29;20028;-25
2023/09/18 02:38:26;;;;;;;1.38;1.27;;;;;;;;;;1013129;29;20035;-25
2023/09/18 02:38:57;;;;;;;3.75;2.25;;;;;;;;;;1013414;29;20058;-25
2023/09/18 02:39:27;;;;;;;1.27;1.17;;;;;;;;;;1013882;29;20040;-26
2023/09/18 02:39:58;;;;;;;2.08;1.13;;;;;;;;;;1014301;29;20032;-25
2023/09/18 02:40:28;;;;;;;0.70;0.47;;;;;;;;;;1009664;28;20136;-25
2023/09/18 02:41:00;;;;;;;5.57;2.30;;;;;;;;;;1008720;28;20037;-25
2023/09/18 02:41:31;;;;;;;1.85;1.67;;;;;;;;;;1007472;28;20035;-24
2023/09/18 02:42:02;;;;;;;2.28;0.55;;;;;;;;;;1010149;28;20396;-24
2023/09/18 02:42:33;;;;;;;1.20;0.47;;;;;;;;;;1012433;29;20466;-25
2023/09/18 02:43:04;;;;;;;0.80;0.80;;;;;;;;;;1013518;29;20032;-25
2023/09/18 02:43:37;;;;;;;1.00;1.00;;;;;;;;;;1011549;28;20027;-25
2023/09/18 02:44:08;;;;;;;1.77;1.67;;;;;;;;;;1012358;29;20033;-26
2023/09/18 02:44:40;;;;;;;3.97;1.52;;;;;;;;;;1009693;29;20032;-25
2023/09/18 02:45:12;;;;;;;1.98;0.80;;;;;;;;;;1013978;29;20471;-24
2023/09/18 02:45:42;;;;;;;1.05;0.95;;;;;;;;;;1014021;29;20038;-25
2023/09/18 02:46:13;;;;;;;1.85;1.63;;;;;;;;;;1014610;29;20034;-25
2023/09/18 02:46:44;;;;;;;5.07;1.58;;;;;;;;;;1014187;29;20054;-25
2023/09/18 02:47:15;;;;;;;1.10;1.00;;;;;;;;;;1012739;28;20032;-26
2023/09/18 02:47:46;;;;;;;1.88;1.08;;;;;;;;;;1012859;28;20387;-25
2023/09/18 02:48:17;;;;;;;0.73;0.73;;;;;;;;;;1008101;29;20085;-25
2023/09/18 02:48:48;;;;;;;3.45;1.00;;;;;;;;;;1007337;28;20029;-25
2023/09/18 02:49:21;;;;;;;4.93;3.10;;;;;;;;;;1006368;28;20026;-23
2023/09/18 02:49:56;;;;;;;1.23;1.23;;;;;;;;;;1005184;29;20339;-25
2023/09/18 02:50:31;;;;;;;0.20;0.20;;;;;;;;;;1004284;28;20033;-25
2023/09/18 02:51:03;;;;;;;1.63;1.40;;;;;;;;;;1005362;29;20083;-25
2023/09/18 02:51:35;;;;;;;5.65;3.15;;;;;;;;;;1009414;28;20034;-25
2023/09/18 02:52:07;;;;;;;6.18;1.98;;;;;;;;;;1015264;28;20034;-25
2023/09/18 02:52:39;;;;;;;3.45;3.15;;;;;;;;;;1009936;28;20037;-25
2023/09/18 02:53:23;;;;;;;1.65;1.35;;;;;;;;;;1013459;28;20076;-24
2023/09/18 02:53:57;;;;;;;3.15;1.83;;;;;;;;;;1007557;28;20037;-23
2023/09/18 02:54:29;;;;;;;1.45;1.35;;;;;;;;;;1003902;28;20598;-24
2023/09/18 02:55:01;;;;;;;4.75;2.28;;;;;;;;;;1007283;28;20029;-25
2023/09/18 02:55:34;;;;;;;18.73;2.63;;;;;;;;;;1004704;28;20036;-25
2023/09/18 02:56:07;;;;;;;2.97;1.67;;;;;;;;;;1006022;28;20124;-25
2023/09/18 02:56:40;;;;;;;2.17;1.77;;;;;;;;;;1008074;29;20032;-24
2023/09/18 02:57:13;;;;;;;1.88;1.67;;;;;;;;;;1008725;29;20147;-25
2023/09/18 02:58:52;;;;;;;2.45;1.80;;;;;;;;;;1009611;29;20060;-25
2023/09/18 02:59:26;;;;;;;8.07;3.70;;;;;;;;;;1006935;29;20028;-25
2023/09/18 02:59:59;;;;;;;1.63;1.52;;;;;;;;;;1009202;28;20040;-25
2023/09/18 03:00:46;;;;;;;2.20;1.52;;;;;;;;;;1010720;29;20032;-25
2023/09/18 03:01:28;;;;;;;3.75;1.75;;;;;;;;;;1008800;28;20036;-26
2023/09/18 03:02:04;;;;;;;1.98;1.75;;;;;;;;;;1009752;29;20096;-25
2023/09/18 03:02:43;;;;;;;4.05;1.45;;;;;;;;;;1007974;29;20086;-26
2023/09/18 03:03:24;;;;;;;0.73;0.73;;;;;;;;;;1010698;29;20032;-25
2023/09/18 03:04:01;;;;;;;1.80;1.45;;;;;;;;;;1014765;28;20085;-26
2023/09/18 03:04:32;;;;;;;7.72;2.47;;;;;;;;;;1010858;28;20475;-26
2023/09/18 03:05:05;;;;;;;3.30;2.20;;;;;;;;;;1025534;28;20323;-26
2023/09/18 03:05:38;;;;;;;12.65;2.53;;;;;;;;;;1028528;28;20018;-25
2023/09/18 03:06:13;;;;;;;1.38;1.25;;;;;;;;;;1026166;28;20538;-24
2023/09/18 03:06:57;;;;;;;6.47;2.92;;;;;;;;;;1019377;28;20409;-24
2023/09/18 03:07:33;;;;;;;2.20;0.43;;;;;;;;;;1022917;28;20383;-25
2023/09/18 03:08:20;;;;;;;1.80;1.65;;;;;;;;;;1022762;28;20427;-29
2023/09/18 03:09:24;;;;;;;0.40;0.40;;;;;;;;;;1024903;28;20382;-26
2023/09/18 03:10:24;;;;;;;2.92;2.53;;;;;;;;;;1024086;28;20034;-26
2023/09/18 03:11:18;;;;;;;1.65;1.55;;;;;;;;;;1016442;28;20078;-26
2023/09/18 03:12:16;;;;;;;1.65;1.30;;;;;;;;;;1021232;28;20039;-25
2023/09/18 03:12:53;;;;;;;1.05;0.95;;;;;;;;;;1023430;28;20391;-25
2023/09/18 03:13:57;;;;;;;2.25;1.65;;;;;;;;;;1016395;28;20066;-26
2023/09/18 03:14:39;;;;;;;1.98;1.83;;;;;;;;;;1020043;28;20036;-25
2023/09/18 03:15:15;;;;;;;0.57;0.20;;;;;;;;;;1022006;29;20129;-25
2023/09/18 03:15:56;;;;;;;1.38;1.27;;;;;;;;;;1021235;29;20566;-26
2023/09/18 03:16:56;;;;;;;2.13;1.55;;;;;;;;;;1018792;29;20592;-25
2023/09/18 03:18:37;;;;;;;;;;;;;;;;;;1021754;28;20554;-23
2023/09/18 03:19:27;;;;;;;0.77;0.77;;;;;;;;;;1018307;28;19923;-24
2023/09/18 03:20:16;;;;;;;4.75;1.98;;;;;;;;;;1014840;29;20059;-26
2023/09/18 03:21:16;;;;;;;4.00;2.40;;;;;;;;;;1021544;29;20596;-25
2023/09/18 03:21:56;;;;;;;2.20;1.85;;;;;;;;;;1021679;29;20066;-26
2023/09/18 03:22:40;;;;;;;0.40;0.40;;;;;;;;;;1013189;29;20405;-24
2023/09/18 03:23:16;;;;;;;2.10;1.90;;;;;;;;;;1013256;29;20055;-25
2023/09/18 03:23:50;;;;;;;2.70;2.33;;;;;;;;;;1009757;29;20033;-26
2023/09/18 03:24:22;;;;;;;7.10;2.15;;;;;;;;;;1010223;29;20042;-25
2023/09/18 03:25:16;;;;;;;3.10;1.98;;;;;;;;;;1014377;29;20089;-26
2023/09/18 03:25:51;;;;;;;1.95;1.05;;;;;;;;;;1009673;29;20036;-25
2023/09/18 03:26:25;;;;;;;3.67;2.92;;;;;;;;;;1007621;29;20226;-26
2023/09/18 03:27:19;;;;;;;0.75;0.75;;;;;;;;;;1009765;29;20434;-24
2023/09/18 03:27:53;;;;;;;1.05;1.00;;;;;;;;;;1013117;29;20051;-25
2023/09/18 03:28:28;;;;;;;8.70;3.03;;;;;;;;;;1015803;29;20099;-25
2023/09/18 03:29:41;;;;;;;1.38;1.27;;;;;;;;;;1011282;29;20144;-24
2023/09/18 03:30:23;;;;;;;2.55;2.35;;;;;;;;;;1008381;29;20108;-26
2023/09/18 03:31:00;;;;;;;5.82;3.35;;;;;;;;;;1009647;29;20036;-25
2023/09/18 03:31:41;;;;;;;6.35;3.20;;;;;;;;;;1009621;29;20420;-25